createdAt,value
2022-08-29T00:00:25.004Z,16.76
2022-08-29T00:01:20.342Z,16.73
2022-08-29T00:02:19.778Z,16.82
2022-08-29T00:03:19.447Z,16.79
2022-08-29T00:04:20.282Z,16.72
2022-08-29T00:05:25.598Z,16.79
2022-08-29T00:06:21.590Z,16.66
2022-08-29T00:07:22.086Z,16.73
2022-08-29T00:08:22.286Z,16.74
2022-08-29T00:09:24.975Z,16.69
2022-08-29T00:10:22.987Z,16.74
2022-08-29T00:11:23.935Z,16.64
2022-08-29T00:12:24.128Z,16.69
2022-08-29T00:13:24.169Z,16.66
2022-08-29T00:14:29.299Z,16.64
2022-08-29T00:15:25.787Z,16.57
2022-08-29T00:16:26.327Z,16.62
2022-08-29T00:17:26.415Z,16.62
2022-08-29T00:18:26.333Z,16.62
2022-08-29T00:19:27.958Z,16.59
2022-08-29T00:20:39.621Z,16.61
2022-08-29T00:21:28.851Z,16.61
2022-08-29T00:22:29.342Z,16.64
2022-08-29T00:23:29.541Z,16.64
2022-08-29T00:24:29.462Z,16.61
2022-08-29T00:25:30.684Z,16.58
2022-08-29T00:26:32.301Z,16.62
2022-08-29T00:27:31.800Z,16.58
2022-08-29T00:28:31.904Z,16.54
2022-08-29T00:29:32.103Z,16.5
2022-08-29T00:30:32.416Z,16.5
2022-08-29T00:31:32.882Z,16.62
2022-08-29T00:32:32.913Z,16.57
2022-08-29T00:33:35.283Z,16.59
2022-08-29T00:34:33.857Z,16.54
2022-08-29T00:35:36.926Z,16.49
2022-08-29T00:36:36.555Z,16.58
2022-08-29T00:37:36.542Z,16.65
2022-08-29T00:38:36.705Z,16.61
2022-08-29T00:39:38.942Z,16.49
2022-08-29T00:40:37.529Z,16.54
2022-08-29T00:41:37.546Z,16.54
2022-08-29T00:42:38.460Z,16.51
2022-08-29T00:43:39.077Z,16.54
2022-08-29T00:44:38.993Z,16.51
2022-08-29T00:45:39.702Z,16.57
2022-08-29T00:46:39.796Z,16.4
2022-08-29T00:47:40.706Z,16.54
2022-08-29T00:48:40.919Z,16.47
2022-08-29T00:49:40.879Z,16.46
2022-08-29T00:50:41.623Z,16.46
2022-08-29T00:51:42.536Z,16.46
2022-08-29T00:52:43.452Z,16.47
2022-08-29T00:53:44.368Z,16.5
2022-08-29T00:54:44.563Z,16.44
2022-08-29T00:55:51.264Z,16.43
2022-08-29T00:56:45.605Z,16.41
2022-08-29T00:57:46.221Z,16.39
2022-08-29T00:58:47.423Z,16.37
2022-08-29T00:59:47.642Z,16.37
2022-08-29T01:00:49.132Z,16.39
2022-08-29T01:01:50.104Z,16.39
2022-08-29T01:02:50.607Z,16.37
2022-08-29T01:03:51.403Z,16.4
2022-08-29T01:04:51.717Z,16.36
2022-08-29T01:05:52.060Z,16.37
2022-08-29T01:06:52.972Z,16.36
2022-08-29T01:07:52.872Z,16.4
2022-08-29T01:09:03.080Z,16.4
2022-08-29T01:09:54.295Z,16.4
2022-08-29T01:10:55.069Z,16.39
2022-08-29T01:11:55.965Z,16.46
2022-08-29T01:12:56.601Z,16.54
2022-08-29T01:13:57.816Z,16.46
2022-08-29T01:14:58.722Z,16.4
2022-08-29T01:15:59.062Z,16.37
2022-08-29T01:16:58.967Z,16.43
2022-08-29T01:17:59.459Z,16.54
2022-08-29T01:18:59.169Z,16.54
2022-08-29T01:20:00.086Z,16.49
2022-08-29T01:21:00.808Z,16.55
2022-08-29T01:22:00.739Z,16.59
2022-08-29T01:23:01.638Z,16.62
2022-08-29T01:24:01.556Z,16.59
2022-08-29T01:25:02.890Z,16.59
2022-08-29T01:26:02.804Z,16.59
2022-08-29T01:27:02.994Z,16.59
2022-08-29T01:28:03.209Z,16.5
2022-08-29T01:29:04.283Z,16.58
2022-08-29T01:30:06.266Z,16.58
2022-08-29T01:31:05.217Z,16.57
2022-08-29T01:32:06.376Z,16.57
2022-08-29T01:33:07.408Z,16.65
2022-08-29T01:34:07.186Z,16.55
2022-08-29T01:35:07.090Z,16.59
2022-08-29T01:36:07.306Z,16.55
2022-08-29T01:37:07.234Z,16.57
2022-08-29T01:38:08.524Z,16.55
2022-08-29T01:39:09.342Z,16.49
2022-08-29T01:40:10.221Z,16.51
2022-08-29T01:41:10.125Z,16.51
2022-08-29T01:42:10.743Z,16.49
2022-08-29T01:43:11.659Z,16.59
2022-08-29T01:44:12.276Z,16.61
2022-08-29T01:45:15.733Z,16.55
2022-08-29T01:46:14.302Z,16.51
2022-08-29T01:47:16.060Z,16.59
2022-08-29T01:48:15.218Z,16.47
2022-08-29T01:49:14.937Z,16.57
2022-08-29T01:50:15.863Z,16.44
2022-08-29T01:51:16.887Z,16.62
2022-08-29T01:52:16.801Z,16.49
2022-08-29T01:53:19.376Z,16.57
2022-08-29T01:54:17.567Z,16.49
2022-08-29T01:55:19.263Z,16.58
2022-08-29T01:56:18.901Z,16.54
2022-08-29T01:57:19.808Z,16.55
2022-08-29T01:58:20.945Z,16.43
2022-08-29T01:59:21.142Z,16.43
2022-08-29T02:00:21.761Z,16.39
2022-08-29T02:01:25.656Z,16.54
2022-08-29T02:02:23.761Z,16.51
2022-08-29T02:03:24.587Z,16.47
2022-08-29T02:04:25.526Z,16.46
2022-08-29T02:05:26.146Z,16.49
2022-08-29T02:06:27.345Z,16.41
2022-08-29T02:07:27.556Z,16.47
2022-08-29T02:08:27.893Z,16.55
2022-08-29T02:09:30.521Z,16.43
2022-08-29T02:10:29.531Z,16.41
2022-08-29T02:11:29.823Z,16.5
2022-08-29T02:12:30.019Z,16.46
2022-08-29T02:13:30.933Z,16.4
2022-08-29T02:14:31.826Z,16.37
2022-08-29T02:15:32.118Z,16.41
2022-08-29T02:16:33.222Z,16.51
2022-08-29T02:17:33.297Z,16.39
2022-08-29T02:18:33.494Z,16.37
2022-08-29T02:19:34.401Z,16.39
2022-08-29T02:20:34.617Z,16.37
2022-08-29T02:21:35.492Z,16.41
2022-08-29T02:22:38.012Z,16.39
2022-08-29T02:23:37.382Z,16.44
2022-08-29T02:24:37.275Z,16.39
2022-08-29T02:25:37.895Z,16.37
2022-08-29T02:26:39.093Z,16.4
2022-08-29T02:27:39.745Z,16.36
2022-08-29T02:28:40.648Z,16.31
2022-08-29T02:29:44.092Z,16.29
2022-08-29T02:30:42.318Z,16.29
2022-08-29T02:31:42.671Z,16.29
2022-08-29T02:32:43.726Z,16.13
2022-08-29T02:33:43.934Z,16.21
2022-08-29T02:34:48.628Z,16.08
2022-08-29T02:35:48.861Z,16.05
2022-08-29T02:36:49.583Z,15.99
2022-08-29T02:37:45.580Z,16
2022-08-29T02:38:47.090Z,15.99
2022-08-29T02:39:46.984Z,15.98
2022-08-29T02:40:48.116Z,15.91
2022-08-29T02:41:50.221Z,15.96
2022-08-29T02:42:47.855Z,15.9
2022-08-29T02:43:49.199Z,15.96
2022-08-29T02:44:49.391Z,15.96
2022-08-29T02:45:49.730Z,15.94
2022-08-29T02:46:50.907Z,15.98
2022-08-29T02:47:51.073Z,15.88
2022-08-29T02:49:06.206Z,16
2022-08-29T02:49:54.560Z,15.92
2022-08-29T02:50:52.200Z,15.9
2022-08-29T02:51:53.499Z,15.94
2022-08-29T02:52:53.417Z,15.96
2022-08-29T02:53:54.050Z,15.94
2022-08-29T02:54:55.466Z,15.96
2022-08-29T02:55:55.610Z,15.98
2022-08-29T02:56:56.393Z,15.94
2022-08-29T02:57:56.715Z,15.96
2022-08-29T02:58:57.377Z,15.98
2022-08-29T02:59:57.867Z,15.99
2022-08-29T03:00:58.259Z,15.92
2022-08-29T03:01:59.071Z,16.06
2022-08-29T03:02:59.256Z,15.94
2022-08-29T03:03:59.466Z,16.05
2022-08-29T03:05:00.131Z,15.96
2022-08-29T03:06:00.471Z,16.03
2022-08-29T03:07:01.690Z,15.94
2022-08-29T03:08:02.176Z,15.99
2022-08-29T03:09:02.717Z,16.03
2022-08-29T03:10:02.916Z,15.98
2022-08-29T03:11:03.263Z,15.99
2022-08-29T03:12:04.435Z,15.96
2022-08-29T03:13:04.080Z,15.96
2022-08-29T03:14:04.995Z,16
2022-08-29T03:15:05.377Z,15.99
2022-08-29T03:16:07.190Z,15.91
2022-08-29T03:17:05.990Z,15.88
2022-08-29T03:18:06.999Z,15.98
2022-08-29T03:19:07.621Z,15.85
2022-08-29T03:20:08.520Z,15.87
2022-08-29T03:21:09.457Z,15.91
2022-08-29T03:22:10.437Z,15.91
2022-08-29T03:23:11.679Z,15.85
2022-08-29T03:24:11.893Z,15.91
2022-08-29T03:25:12.510Z,15.96
2022-08-29T03:26:13.130Z,15.91
2022-08-29T03:27:13.056Z,15.94
2022-08-29T03:28:14.680Z,15.85
2022-08-29T03:29:14.619Z,15.92
2022-08-29T03:30:16.613Z,15.83
2022-08-29T03:31:15.809Z,15.81
2022-08-29T03:32:16.408Z,15.85
2022-08-29T03:33:17.908Z,15.91
2022-08-29T03:34:18.100Z,15.9
2022-08-29T03:35:18.315Z,15.92
2022-08-29T03:36:20.210Z,15.88
2022-08-29T03:37:19.704Z,15.88
2022-08-29T03:38:20.803Z,15.83
2022-08-29T03:39:20.735Z,15.88
2022-08-29T03:40:20.964Z,15.87
2022-08-29T03:41:22.063Z,15.84
2022-08-29T03:42:22.363Z,15.9
2022-08-29T03:43:24.241Z,15.83
2022-08-29T03:44:22.839Z,15.83
2022-08-29T03:45:22.974Z,15.75
2022-08-29T03:46:23.378Z,15.83
2022-08-29T03:47:24.061Z,15.88
2022-08-29T03:48:23.980Z,15.83
2022-08-29T03:49:25.167Z,15.87
2022-08-29T03:50:24.859Z,15.7
2022-08-29T03:51:29.929Z,15.72
2022-08-29T03:52:26.644Z,15.76
2022-08-29T03:53:27.371Z,15.73
2022-08-29T03:54:26.604Z,15.81
2022-08-29T03:55:27.825Z,15.7
2022-08-29T03:56:27.746Z,15.72
2022-08-29T03:57:31.776Z,15.72
2022-08-29T03:58:29.401Z,15.7
2022-08-29T03:59:29.621Z,15.69
2022-08-29T04:00:29.815Z,15.67
2022-08-29T04:01:30.506Z,15.66
2022-08-29T04:02:31.396Z,15.76
2022-08-29T04:03:36.937Z,15.66
2022-08-29T04:04:31.879Z,15.75
2022-08-29T04:05:32.996Z,15.75
2022-08-29T04:06:33.916Z,15.75
2022-08-29T04:07:34.404Z,15.66
2022-08-29T04:08:35.323Z,15.72
2022-08-29T04:09:35.517Z,15.72
2022-08-29T04:10:38.456Z,15.67
2022-08-29T04:11:36.803Z,15.62
2022-08-29T04:12:37.245Z,15.62
2022-08-29T04:13:37.891Z,15.52
2022-08-29T04:14:38.109Z,15.52
2022-08-29T04:15:38.326Z,15.59
2022-08-29T04:16:38.924Z,15.5
2022-08-29T04:17:53.578Z,15.57
2022-08-29T04:18:39.350Z,15.55
2022-08-29T04:19:39.248Z,15.52
2022-08-29T04:20:40.171Z,15.52
2022-08-29T04:21:41.361Z,15.5
2022-08-29T04:22:42.674Z,15.59
2022-08-29T04:23:42.891Z,15.55
2022-08-29T04:24:43.218Z,15.55
2022-08-29T04:25:43.903Z,15.52
2022-08-29T04:26:43.809Z,15.54
2022-08-29T04:27:44.301Z,15.52
2022-08-29T04:28:45.328Z,15.57
2022-08-29T04:29:45.820Z,15.6
2022-08-29T04:30:52.661Z,15.54
2022-08-29T04:31:46.627Z,15.55
2022-08-29T04:32:46.625Z,15.5
2022-08-29T04:33:47.244Z,15.39
2022-08-29T04:34:48.456Z,15.43
2022-08-29T04:35:48.951Z,15.39
2022-08-29T04:36:49.566Z,15.39
2022-08-29T04:37:50.005Z,15.45
2022-08-29T04:38:50.627Z,15.44
2022-08-29T04:39:50.853Z,15.37
2022-08-29T04:40:52.195Z,15.43
2022-08-29T04:41:52.541Z,15.41
2022-08-29T04:42:53.536Z,15.43
2022-08-29T04:43:53.455Z,15.41
2022-08-29T04:44:54.376Z,15.33
2022-08-29T04:45:55.089Z,15.32
2022-08-29T04:46:55.998Z,15.37
2022-08-29T04:47:55.928Z,15.36
2022-08-29T04:49:04.142Z,15.29
2022-08-29T04:50:00.945Z,15.3
2022-08-29T04:50:58.141Z,15.3
2022-08-29T04:51:58.348Z,15.22
2022-08-29T04:52:58.775Z,15.27
2022-08-29T04:53:59.727Z,15.23
2022-08-29T04:55:00.343Z,15.15
2022-08-29T04:56:01.963Z,15.22
2022-08-29T04:57:05.255Z,15.29
2022-08-29T04:58:04.270Z,15.32
2022-08-29T04:59:03.948Z,15.35
2022-08-29T05:00:04.163Z,15.3
2022-08-29T05:01:03.292Z,15.27
2022-08-29T05:02:03.993Z,15.27
2022-08-29T05:03:04.764Z,15.43
2022-08-29T05:04:06.005Z,15.37
2022-08-29T05:05:06.216Z,15.41
2022-08-29T05:06:06.136Z,15.57
2022-08-29T05:07:07.340Z,15.52
2022-08-29T05:08:08.029Z,15.52
2022-08-29T05:09:08.481Z,15.6
2022-08-29T05:10:08.976Z,15.51
2022-08-29T05:11:09.318Z,15.52
2022-08-29T05:12:15.722Z,15.57
2022-08-29T05:13:10.749Z,15.54
2022-08-29T05:14:11.668Z,15.57
2022-08-29T05:15:12.279Z,15.59
2022-08-29T05:16:13.650Z,15.55
2022-08-29T05:17:13.632Z,15.55
2022-08-29T05:18:14.897Z,15.6
2022-08-29T05:19:16.638Z,15.63
2022-08-29T05:20:15.262Z,15.62
2022-08-29T05:21:16.162Z,15.69
2022-08-29T05:22:17.103Z,15.66
2022-08-29T05:23:21.411Z,15.66
2022-08-29T05:24:18.635Z,15.72
2022-08-29T05:25:23.558Z,15.67
2022-08-29T05:26:19.257Z,15.73
2022-08-29T05:27:19.618Z,15.72
2022-08-29T05:28:20.709Z,15.65
2022-08-29T05:29:21.611Z,15.72
2022-08-29T05:30:40.478Z,15.72
2022-08-29T05:31:23.736Z,15.75
2022-08-29T05:32:23.825Z,15.72
2022-08-29T05:33:24.857Z,15.7
2022-08-29T05:34:40.972Z,15.72
2022-08-29T05:35:26.315Z,15.66
2022-08-29T05:36:26.952Z,15.72
2022-08-29T05:37:27.148Z,15.67
2022-08-29T05:38:28.070Z,15.65
2022-08-29T05:39:28.716Z,15.59
2022-08-29T05:40:29.869Z,15.63
2022-08-29T05:41:38.795Z,15.6
2022-08-29T05:42:31.746Z,15.63
2022-08-29T05:43:31.163Z,15.6
2022-08-29T05:44:35.741Z,15.57
2022-08-29T05:45:31.636Z,15.55
2022-08-29T05:46:32.102Z,15.52
2022-08-29T05:47:32.881Z,15.63
2022-08-29T05:48:33.506Z,15.54
2022-08-29T05:49:34.121Z,15.65
2022-08-29T05:50:34.323Z,15.65
2022-08-29T05:51:40.053Z,15.69
2022-08-29T05:52:35.421Z,15.69
2022-08-29T05:53:36.574Z,15.63
2022-08-29T05:54:36.771Z,15.66
2022-08-29T05:55:36.983Z,15.8
2022-08-29T05:56:37.603Z,15.78
2022-08-29T05:57:38.280Z,15.8
2022-08-29T05:58:39.494Z,15.83
2022-08-29T05:59:39.135Z,15.88
2022-08-29T06:00:41.430Z,15.84
2022-08-29T06:01:42.015Z,15.88
2022-08-29T06:02:41.731Z,15.94
2022-08-29T06:03:46.580Z,15.98
2022-08-29T06:04:42.452Z,15.91
2022-08-29T06:05:42.793Z,15.99
2022-08-29T06:06:43.701Z,15.96
2022-08-29T06:07:44.190Z,16.02
2022-08-29T06:08:45.373Z,16.12
2022-08-29T06:09:45.592Z,16
2022-08-29T06:10:46.379Z,16.08
2022-08-29T06:11:46.893Z,16.09
2022-08-29T06:12:47.099Z,16.21
2022-08-29T06:13:47.811Z,16.16
2022-08-29T06:14:55.922Z,16.31
2022-08-29T06:15:48.733Z,16.31
2022-08-29T06:16:49.501Z,16.36
2022-08-29T06:17:50.121Z,16.41
2022-08-29T06:18:51.045Z,16.58
2022-08-29T06:19:51.984Z,16.58
2022-08-29T06:20:51.908Z,16.61
2022-08-29T06:21:52.713Z,16.54
2022-08-29T06:22:53.144Z,16.61
2022-08-29T06:23:53.890Z,16.61
2022-08-29T06:24:58.495Z,16.69
2022-08-29T06:25:54.357Z,16.77
2022-08-29T06:26:54.973Z,16.74
2022-08-29T06:27:55.212Z,16.82
2022-08-29T06:28:56.443Z,16.94
2022-08-29T06:30:02.099Z,16.89
2022-08-29T06:30:58.220Z,16.98
2022-08-29T06:31:57.726Z,16.98
2022-08-29T06:32:57.943Z,17.02
2022-08-29T06:33:58.961Z,17.02
2022-08-29T06:34:59.886Z,17.14
2022-08-29T06:35:59.786Z,17.22
2022-08-29T06:37:01.008Z,17.28
2022-08-29T06:38:01.660Z,17.52
2022-08-29T06:39:02.419Z,17.75
2022-08-29T06:40:07.805Z,18
2022-08-29T06:41:04.172Z,18.16
2022-08-29T06:42:05.103Z,18.41
2022-08-29T06:43:06.003Z,18.52
2022-08-29T06:44:07.036Z,18.7
2022-08-29T06:45:07.704Z,19.09
2022-08-29T06:46:09.078Z,19.37
2022-08-29T06:47:09.717Z,19.55
2022-08-29T06:48:15.298Z,19.84
2022-08-29T06:49:11.236Z,19.94
2022-08-29T06:50:12.019Z,20.14
2022-08-29T06:51:13.528Z,20.14
2022-08-29T06:52:14.034Z,20.24
2022-08-29T06:54:28.497Z,20.29
2022-08-29T06:55:29.917Z,20.37
2022-08-29T06:56:26.779Z,20.4
2022-08-29T06:57:27.005Z,20.27
2022-08-29T06:58:27.233Z,20.22
2022-08-29T06:59:27.862Z,20.11
2022-08-29T07:00:28.788Z,20.21
2022-08-29T07:01:29.318Z,20.14
2022-08-29T07:02:30.111Z,20.33
2022-08-29T07:03:29.902Z,20.36
2022-08-29T07:04:32.813Z,20.39
2022-08-29T07:05:30.581Z,20.37
2022-08-29T07:06:31.531Z,20.5
2022-08-29T07:07:36.129Z,20.63
2022-08-29T07:08:33.057Z,20.71
2022-08-29T07:09:33.504Z,20.75
2022-08-29T07:10:34.709Z,21.03
2022-08-29T07:11:41.186Z,21.4
2022-08-29T07:12:37.182Z,21.58
2022-08-29T07:13:36.086Z,21.63
2022-08-29T07:14:37.085Z,21.63
2022-08-29T07:15:38.085Z,21.72
2022-08-29T07:16:38.876Z,21.72
2022-08-29T07:17:39.082Z,21.7
2022-08-29T07:18:40.424Z,21.68
2022-08-29T07:19:41.232Z,21.69
2022-08-29T07:20:40.453Z,21.63
2022-08-29T07:21:41.670Z,21.43
2022-08-29T07:22:42.018Z,21.25
2022-08-29T07:23:42.217Z,21.15
2022-08-29T07:24:42.248Z,21.14
2022-08-29T07:25:43.154Z,21.05
2022-08-29T07:26:44.377Z,21.01
2022-08-29T07:27:44.302Z,20.9
2022-08-29T07:28:50.346Z,20.89
2022-08-29T07:29:50.953Z,20.83
2022-08-29T07:30:46.314Z,20.77
2022-08-29T07:31:46.192Z,20.64
2022-08-29T07:32:47.122Z,20.63
2022-08-29T07:34:01.883Z,20.59
2022-08-29T07:34:56.195Z,20.58
2022-08-29T07:35:50.875Z,20.58
2022-08-29T07:36:50.728Z,20.55
2022-08-29T07:37:56.673Z,20.66
2022-08-29T07:38:52.636Z,20.6
2022-08-29T07:39:53.271Z,20.73
2022-08-29T07:40:56.958Z,20.82
2022-08-29T07:41:54.701Z,20.77
2022-08-29T07:42:55.212Z,20.92
2022-08-29T07:43:55.151Z,20.89
2022-08-29T07:44:56.141Z,20.86
2022-08-29T07:45:58.399Z,21.04
2022-08-29T07:46:57.225Z,21.13
2022-08-29T07:50:02.488Z,21.17
2022-08-29T07:51:00.115Z,21.28
2022-08-29T07:52:01.089Z,21.29
2022-08-29T07:53:01.993Z,21.29
2022-08-29T07:54:04.937Z,21.33
2022-08-29T07:55:03.294Z,21.3
2022-08-29T07:56:03.522Z,21.41
2022-08-29T07:57:04.451Z,21.35
2022-08-29T07:58:04.373Z,21.4
2022-08-29T07:59:04.473Z,21.44
2022-08-29T08:02:06.951Z,21.48
2022-08-29T08:03:09.465Z,21.47
2022-08-29T08:05:11.231Z,21.66
2022-08-29T08:06:14.430Z,21.51
2022-08-29T08:07:14.141Z,21.63
2022-08-29T08:08:17.332Z,21.74
2022-08-29T08:09:10.276Z,21.72
2022-08-29T08:10:10.611Z,21.77
2022-08-29T08:11:10.828Z,21.7
2022-08-29T08:12:14.370Z,21.74
2022-08-29T08:13:11.841Z,21.72
2022-08-29T08:14:13.350Z,21.7
2022-08-29T08:15:14.203Z,21.69
2022-08-29T08:16:14.773Z,21.8
2022-08-29T08:17:15.821Z,21.84
2022-08-29T08:18:16.567Z,21.74
2022-08-29T08:19:18.279Z,21.72
2022-08-29T08:20:17.097Z,21.65
2022-08-29T08:21:17.819Z,21.58
2022-08-29T08:22:18.519Z,21.59
2022-08-29T08:23:21.063Z,21.54
2022-08-29T08:24:25.176Z,21.4
2022-08-29T08:25:24.906Z,21.45
2022-08-29T08:26:19.834Z,21.33
2022-08-29T08:27:20.761Z,21.3
2022-08-29T08:28:21.200Z,21.35
2022-08-29T08:29:21.829Z,21.38
2022-08-29T08:30:26.115Z,21.4
2022-08-29T08:31:23.865Z,21.38
2022-08-29T08:32:32.909Z,21.33
2022-08-29T08:33:24.407Z,21.35
2022-08-29T08:34:25.228Z,21.29
2022-08-29T08:35:28.369Z,21.32
2022-08-29T08:36:26.103Z,21.37
2022-08-29T08:37:33.553Z,21.35
2022-08-29T08:38:28.121Z,21.4
2022-08-29T08:39:28.351Z,21.43
2022-08-29T08:40:28.806Z,21.48
2022-08-29T08:41:32.881Z,21.51
2022-08-29T08:42:30.716Z,21.63
2022-08-29T08:43:32.969Z,21.62
2022-08-29T08:44:35.551Z,21.62
2022-08-29T08:45:32.207Z,21.65
2022-08-29T08:46:32.823Z,21.68
2022-08-29T08:47:34.070Z,21.83
2022-08-29T08:48:34.011Z,21.85
2022-08-29T08:49:34.920Z,21.84
2022-08-29T08:50:34.568Z,21.91
2022-08-29T08:51:35.795Z,22.01
2022-08-29T08:52:37.005Z,22
2022-08-29T08:53:37.310Z,22.04
2022-08-29T08:54:37.939Z,22.07
2022-08-29T08:55:38.994Z,22.03
2022-08-29T08:56:38.910Z,22.08
2022-08-29T08:57:40.130Z,22.07
2022-08-29T08:58:40.759Z,22.1
2022-08-29T08:59:40.683Z,22.23
2022-08-29T09:00:41.611Z,22.25
2022-08-29T09:01:42.613Z,22.37
2022-08-29T09:02:43.241Z,22.51
2022-08-29T09:03:43.365Z,22.8
2022-08-29T09:04:43.866Z,23.2
2022-08-29T09:05:49.502Z,23.84
2022-08-29T09:06:45.445Z,24.44
2022-08-29T09:07:45.672Z,25.15
2022-08-29T09:08:47.061Z,25.7
2022-08-29T09:09:47.142Z,26.29
2022-08-29T09:10:47.350Z,26.68
2022-08-29T09:11:48.402Z,27.25
2022-08-29T09:12:51.872Z,27.67
2022-08-29T09:13:49.099Z,28.2
2022-08-29T09:14:48.734Z,28.53
2022-08-29T09:15:50.099Z,28.71
2022-08-29T09:16:50.237Z,29.07
2022-08-29T09:17:50.576Z,29.44
2022-08-29T09:18:59.933Z,29.86
2022-08-29T09:19:51.441Z,30.17
2022-08-29T09:20:52.544Z,30.27
2022-08-29T09:21:53.035Z,30.24
2022-08-29T09:22:53.692Z,30.02
2022-08-29T09:23:54.312Z,29.8
2022-08-29T09:24:54.840Z,29.79
2022-08-29T09:25:54.563Z,29.87
2022-08-29T09:26:55.854Z,30.1
2022-08-29T09:27:56.371Z,30.11
2022-08-29T09:28:56.589Z,29.92
2022-08-29T09:29:57.303Z,29.65
2022-08-29T09:30:57.944Z,29.71
2022-08-29T09:32:02.936Z,29.89
2022-08-29T09:33:00.095Z,30.06
2022-08-29T09:34:01.160Z,30.43
2022-08-29T09:35:14.462Z,30.91
2022-08-29T09:36:02.775Z,31.07
2022-08-29T09:37:02.735Z,31.35
2022-08-29T09:38:03.662Z,31.36
2022-08-29T09:39:05.021Z,31.36
2022-08-29T09:40:05.103Z,31.48
2022-08-29T09:41:05.604Z,31.54
2022-08-29T09:42:06.540Z,31.57
2022-08-29T09:43:07.208Z,31.29
2022-08-29T09:44:08.439Z,31.13
2022-08-29T09:45:08.670Z,30.36
2022-08-29T09:46:09.130Z,29.74
2022-08-29T09:47:09.585Z,29.69
2022-08-29T09:48:10.182Z,29.74
2022-08-29T09:49:10.407Z,29.83
2022-08-29T09:50:10.348Z,30.03
2022-08-29T09:51:11.010Z,30.01
2022-08-29T09:52:12.244Z,30.13
2022-08-29T09:53:30.604Z,30.51
2022-08-29T09:54:13.702Z,30.51
2022-08-29T09:55:14.934Z,30.39
2022-08-29T09:56:34.574Z,30.2
2022-08-29T09:57:35.506Z,30.11
2022-08-29T09:58:40.530Z,29.84
2022-08-29T09:59:43.172Z,29.8
2022-08-29T10:00:37.093Z,29.68
2022-08-29T10:01:42.599Z,29.59
2022-08-29T10:02:40.502Z,29.64
2022-08-29T10:03:41.306Z,29.61
2022-08-29T10:04:39.706Z,29.58
2022-08-29T10:05:40.212Z,29.92
2022-08-29T10:06:52.131Z,30.14
2022-08-29T10:07:43.095Z,30.39
2022-08-29T10:08:41.767Z,30.76
2022-08-29T10:09:42.985Z,30.85
2022-08-29T10:10:43.799Z,31.08
2022-08-29T10:11:44.319Z,31.26
2022-08-29T10:12:45.118Z,31.39
2022-08-29T10:13:45.737Z,31.42
2022-08-29T10:14:56.224Z,31.55
2022-08-29T10:15:56.166Z,31.5
2022-08-29T10:16:48.573Z,31.47
2022-08-29T10:17:50.630Z,31.7
2022-08-29T10:18:49.810Z,31.87
2022-08-29T10:19:50.048Z,32.12
2022-08-29T10:20:51.066Z,32.41
2022-08-29T10:21:51.304Z,32.54
2022-08-29T10:22:52.148Z,32.41
2022-08-29T10:23:53.252Z,32.11
2022-08-29T10:24:53.479Z,31.72
2022-08-29T10:25:54.445Z,31.87
2022-08-29T10:26:55.189Z,31.62
2022-08-29T10:27:55.704Z,31.26
2022-08-29T10:28:57.671Z,30.81
2022-08-29T10:29:56.888Z,30.21
2022-08-29T10:30:56.848Z,29.79
2022-08-29T10:31:58.043Z,29.32
2022-08-29T10:32:57.919Z,29.21
2022-08-29T10:33:58.903Z,29.27
2022-08-29T10:34:59.551Z,29.39
2022-08-29T10:36:00.839Z,29.64
2022-08-29T10:37:01.570Z,29.84
2022-08-29T10:38:02.798Z,30.05
2022-08-29T10:39:03.324Z,30.24
2022-08-29T10:40:03.176Z,30.46
2022-08-29T10:41:05.606Z,30.62
2022-08-29T10:42:04.535Z,30.76
2022-08-29T10:43:08.373Z,30.86
2022-08-29T10:44:05.726Z,30.93
2022-08-29T10:45:06.223Z,31.08
2022-08-29T10:46:07.436Z,31.18
2022-08-29T10:47:07.731Z,31.13
2022-08-29T10:48:08.717Z,30.93
2022-08-29T10:49:09.371Z,30.58
2022-08-29T10:50:34.290Z,30.11
2022-08-29T10:51:10.142Z,30.02
2022-08-29T10:52:10.840Z,29.98
2022-08-29T10:53:11.204Z,29.98
2022-08-29T10:54:11.867Z,30.08
2022-08-29T10:55:12.798Z,30.17
2022-08-29T10:56:14.017Z,30.32
2022-08-29T10:57:15.015Z,30.39
2022-08-29T10:58:18.800Z,30.56
2022-08-29T10:59:16.033Z,30.67
2022-08-29T11:00:15.963Z,30.76
2022-08-29T11:01:17.407Z,30.81
2022-08-29T11:02:17.848Z,30.77
2022-08-29T11:03:17.805Z,30.65
2022-08-29T11:04:19.067Z,30.14
2022-08-29T11:05:19.190Z,29.99
2022-08-29T11:06:23.830Z,29.86
2022-08-29T11:07:20.261Z,29.9
2022-08-29T11:08:22.807Z,29.96
2022-08-29T11:09:21.463Z,30.02
2022-08-29T11:10:22.119Z,30.14
2022-08-29T11:11:22.462Z,30.31
2022-08-29T11:12:24.008Z,30.43
2022-08-29T11:13:23.647Z,30.48
2022-08-29T11:14:24.878Z,30.46
2022-08-29T11:15:25.418Z,30.52
2022-08-29T11:16:25.528Z,30.51
2022-08-29T11:17:25.876Z,30.61
2022-08-29T11:18:28.294Z,30.7
2022-08-29T11:19:28.478Z,30.39
2022-08-29T11:20:27.993Z,29.94
2022-08-29T11:21:30.800Z,29.67
2022-08-29T11:22:28.953Z,29.52
2022-08-29T11:23:29.610Z,29.58
2022-08-29T11:24:35.539Z,29.65
2022-08-29T11:25:33.191Z,29.77
2022-08-29T11:26:31.418Z,29.9
2022-08-29T11:27:31.572Z,29.95
2022-08-29T11:28:31.993Z,29.64
2022-08-29T11:29:32.794Z,29.55
2022-08-29T11:30:41.846Z,29.59
2022-08-29T11:31:35.090Z,29.62
2022-08-29T11:32:39.176Z,29.77
2022-08-29T11:33:36.117Z,29.92
2022-08-29T11:34:36.316Z,30.01
2022-08-29T11:35:37.277Z,30.11
2022-08-29T11:36:37.903Z,30.11
2022-08-29T11:37:37.913Z,30.24
2022-08-29T11:38:39.254Z,30.27
2022-08-29T11:39:40.172Z,30.13
2022-08-29T11:41:28.665Z,29.42
2022-08-29T11:41:46.906Z,29.25
2022-08-29T11:43:12.947Z,28.68
2022-08-29T11:43:47.594Z,28.38
2022-08-29T11:44:47.964Z,28.23
2022-08-29T11:45:47.909Z,28.13
2022-08-29T11:46:56.191Z,28.09
2022-08-29T11:47:48.977Z,28.23
2022-08-29T11:48:48.715Z,28.08
2022-08-29T11:49:49.131Z,28.2
2022-08-29T11:50:49.300Z,28.38
2022-08-29T11:51:50.257Z,28.52
2022-08-29T11:52:50.498Z,28.62
2022-08-29T11:53:50.859Z,28.46
2022-08-29T11:54:52.074Z,28.2
2022-08-29T11:55:53.031Z,28.19
2022-08-29T11:56:53.668Z,28.04
2022-08-29T11:57:54.787Z,28.03
2022-08-29T11:58:55.248Z,28.03
2022-08-29T11:59:55.463Z,28.16
2022-08-29T12:00:55.397Z,28.25
2022-08-29T12:01:56.212Z,28.25
2022-08-29T12:02:55.980Z,28.04
2022-08-29T12:03:57.056Z,28.09
2022-08-29T12:04:57.514Z,28.23
2022-08-29T12:05:58.743Z,28.2
2022-08-29T12:07:01.747Z,28.23
2022-08-29T12:08:26.526Z,28.19
2022-08-29T12:09:06.492Z,28.22
2022-08-29T12:10:00.760Z,28.34
2022-08-29T12:11:01.695Z,28.23
2022-08-29T12:12:01.950Z,28.15
2022-08-29T12:13:02.130Z,28.23
2022-08-29T12:14:05.056Z,28.2
2022-08-29T12:15:03.720Z,28.43
2022-08-29T12:16:04.474Z,28.53
2022-08-29T12:17:04.820Z,28.52
2022-08-29T12:18:19.827Z,28.56
2022-08-29T12:19:20.489Z,28.4
2022-08-29T12:20:20.995Z,28.37
2022-08-29T12:21:20.938Z,28.2
2022-08-29T12:22:28.551Z,28.09
2022-08-29T12:23:23.238Z,27.95
2022-08-29T12:24:22.938Z,27.67
2022-08-29T12:25:24.260Z,27.44
2022-08-29T12:26:29.221Z,27.33
2022-08-29T12:27:26.135Z,27.18
2022-08-29T12:28:26.073Z,27.2
2022-08-29T12:29:27.577Z,27.11
2022-08-29T12:30:26.499Z,27.07
2022-08-29T12:31:29.454Z,27.15
2022-08-29T12:32:35.759Z,27.4
2022-08-29T12:33:29.730Z,27.47
2022-08-29T12:34:29.792Z,27.75
2022-08-29T12:35:30.570Z,27.83
2022-08-29T12:36:31.066Z,28
2022-08-29T12:37:31.745Z,28.01
2022-08-29T12:38:32.178Z,28.08
2022-08-29T12:39:32.194Z,28.33
2022-08-29T12:40:33.451Z,28.46
2022-08-29T12:41:33.399Z,28.19
2022-08-29T12:42:34.283Z,28.04
2022-08-29T12:43:34.731Z,27.95
2022-08-29T12:44:35.968Z,28.12
2022-08-29T12:45:36.452Z,28.16
2022-08-29T12:46:37.574Z,28.4
2022-08-29T12:47:46.059Z,28.59
2022-08-29T12:48:39.182Z,28.64
2022-08-29T12:49:40.154Z,28.64
2022-08-29T12:50:40.213Z,28.82
2022-08-29T12:51:40.852Z,28.6
2022-08-29T12:52:42.060Z,28.23
2022-08-29T12:53:42.567Z,28.22
2022-08-29T12:54:46.566Z,28.06
2022-08-29T12:55:43.777Z,28.08
2022-08-29T12:56:44.667Z,28.1
2022-08-29T12:57:45.178Z,28.04
2022-08-29T12:58:45.473Z,28.28
2022-08-29T12:59:46.387Z,28.35
2022-08-29T13:00:47.497Z,28.6
2022-08-29T13:01:47.793Z,28.67
2022-08-29T13:02:48.763Z,28.89
2022-08-29T13:03:49.159Z,28.87
2022-08-29T13:04:50.487Z,29.03
2022-08-29T13:05:51.168Z,29.25
2022-08-29T13:06:52.320Z,29.5
2022-08-29T13:07:51.895Z,29.57
2022-08-29T13:08:53.049Z,29.71
2022-08-29T13:09:53.786Z,29.74